Time;durP1;ratioP1;P1;durP2;ratioP2;P2;SDS_P1;SDS_P2;PMS_P1;PMS_P2;Temp;Humidity;BMP_temperature;BMP_pressure;BME280_temperature;BME280_humidity;BME280_pressure;Samples;Min_cycle;Max_cycle;Signal;HPM_P1;HPM_P2
2022/04/11 00:01:25;;;;;;;2.28;2.17;;;;;;;2.43;70.68;98943.03;4133675;28;20643;-54
2022/04/11 00:03:28;;;;;;;2.70;2.47;;;;;;;2.38;70.39;98950.84;4135137;28;20225;-55
2022/04/11 00:05:30;;;;;;;2.53;2.33;;;;;;;2.38;70.23;98950.84;4135831;28;20861;-54
2022/04/11 00:07:31;;;;;;;3.15;2.10;;;;;;;2.39;70.50;98945.25;4135206;28;20285;-55
2022/04/11 00:09:33;;;;;;;2.15;2.05;;;;;;;2.36;70.86;98948.34;4120928;28;20416;-54
2022/04/11 00:11:35;;;;;;;2.85;2.65;;;;;;;2.37;70.77;98950.03;4117494;28;20211;-54
2022/04/11 00:13:37;;;;;;;2.45;2.30;;;;;;;2.34;70.41;98949.56;4136068;28;20232;-54
2022/04/11 00:15:40;;;;;;;3.50;3.15;;;;;;;2.33;70.26;98948.72;4135527;28;20233;-55
2022/04/11 00:17:42;;;;;;;2.40;2.25;;;;;;;2.31;70.87;98953.47;4133646;28;20251;-55
2022/04/11 00:19:44;;;;;;;2.60;2.40;;;;;;;2.33;70.47;98948.72;4119100;28;20403;-55
2022/04/11 00:21:45;;;;;;;1.80;1.70;;;;;;;2.33;70.92;98943.31;4135750;28;20286;-54
2022/04/11 00:23:47;;;;;;;2.13;2.03;;;;;;;2.34;70.29;98944.16;4133936;28;20684;-55
2022/04/11 00:25:49;;;;;;;2.15;2.05;;;;;;;2.35;70.70;98943.94;4119351;28;20658;-55
2022/04/11 00:27:52;;;;;;;3.42;3.13;;;;;;;2.32;70.74;98930.84;4119256;28;20292;-55
2022/04/11 00:29:54;;;;;;;2.67;2.22;;;;;;;2.34;70.97;98928.78;4134775;28;20220;-54
2022/04/11 00:31:55;;;;;;;4.13;3.67;;;;;;;2.31;70.88;98934.56;4131463;28;20564;-54
2022/04/11 00:33:57;;;;;;;2.75;2.15;;;;;;;2.35;70.67;98925.06;4118941;28;20316;-55
2022/04/11 00:35:59;;;;;;;2.03;1.90;;;;;;;2.33;70.72;98926.28;4134415;28;20214;-55
2022/04/11 00:38:00;;;;;;;5.25;2.00;;;;;;;2.31;70.98;98929.19;4132793;28;20228;-55
2022/04/11 00:40:03;;;;;;;2.45;2.35;;;;;;;2.25;71.30;98919.13;4136935;28;20218;-55
2022/04/11 00:42:13;;;;;;;2.42;2.22;;;;;;;2.29;70.91;98920.44;4134824;28;20221;-54
2022/04/11 00:44:15;;;;;;;2.45;2.13;;;;;;;2.28;71.18;98917.91;4104150;28;20230;-55
2022/04/11 00:46:16;;;;;;;1.50;1.40;;;;;;;2.30;71.23;98915.84;4133726;28;21231;-55
2022/04/11 00:48:18;;;;;;;2.55;2.35;;;;;;;2.32;71.18;98914.66;4135856;28;20209;-55
2022/04/11 00:50:20;;;;;;;2.22;2.13;;;;;;;2.34;71.84;98907.19;4108388;28;20206;-55
2022/04/11 00:52:22;;;;;;;1.70;1.60;;;;;;;2.37;71.17;98906.81;4117962;28;20210;-55
2022/04/11 00:54:25;;;;;;;1.85;1.75;;;;;;;2.39;70.94;98907.47;4136457;28;20263;-56
2022/04/11 00:56:31;;;;;;;1.95;1.85;;;;;;;2.39;71.40;98904.75;4100601;28;20214;-54
2022/04/11 00:58:34;;;;;;;1.70;1.60;;;;;;;2.34;71.70;98907.19;4116996;28;20219;-54
2022/04/11 01:00:36;;;;;;;2.47;2.28;;;;;;;2.34;71.31;98904.47;4131817;28;20276;-56
2022/04/11 01:02:38;;;;;;;5.95;3.97;;;;;;;2.34;71.37;98891.00;4102566;28;20227;-56
2022/04/11 01:04:41;;;;;;;4.82;2.58;;;;;;;2.36;71.27;98899.75;4115364;28;20240;-55
2022/04/11 01:06:49;;;;;;;2.80;2.70;;;;;;;2.34;71.43;98885.59;4135641;28;20206;-56
2022/04/11 01:08:51;;;;;;;2.58;2.38;;;;;;;2.34;71.34;98891.00;4133951;28;20210;-55
2022/04/11 01:10:53;;;;;;;2.60;2.25;;;;;;;2.36;71.40;98883.56;4101159;28;20719;-55
2022/04/11 01:12:55;;;;;;;3.63;2.80;;;;;;;2.40;71.15;98884.00;4136862;28;20205;-54
2022/04/11 01:14:57;;;;;;;2.20;2.00;;;;;;;2.36;70.79;98894.34;4136895;28;20830;-54
2022/04/11 01:16:59;;;;;;;2.22;2.03;;;;;;;2.33;70.95;98889.31;4137195;28;20202;-56
2022/04/11 01:19:01;;;;;;;2.13;2.03;;;;;;;2.31;70.95;98880.59;4138338;28;20207;-55
2022/04/11 01:21:03;;;;;;;2.95;2.20;;;;;;;2.34;71.36;98891.00;4119744;28;20214;-55
2022/04/11 01:23:05;;;;;;;3.17;2.97;;;;;;;2.33;70.94;98881.22;4135247;28;20217;-55
2022/04/11 01:25:07;;;;;;;3.90;3.60;;;;;;;2.31;71.14;98879.72;4134702;28;20214;-54
2022/04/11 01:27:09;;;;;;;2.00;1.90;;;;;;;2.30;71.82;98881.59;4137947;28;20213;-54
2022/04/11 01:29:11;;;;;;;1.95;1.85;;;;;;;2.28;71.12;98872.84;4113997;28;20214;-54
2022/04/11 01:31:13;;;;;;;2.45;2.00;;;;;;;2.25;70.90;98875.94;4132978;28;20278;-54
2022/04/11 01:33:28;;;;;;;2.42;2.33;;;;;;;2.26;71.32;98880.31;4133185;28;20315;-55
2022/04/11 01:35:30;;;;;;;3.40;3.20;;;;;;;2.24;70.82;98882.38;4119480;28;20210;-54
2022/04/11 01:37:34;;;;;;;2.70;2.22;;;;;;;2.25;71.48;98875.09;4135788;28;20211;-54
2022/04/11 01:39:37;;;;;;;3.40;2.47;;;;;;;2.23;71.96;98880.69;4116961;28;20213;-54
2022/04/11 01:41:38;;;;;;;2.67;2.47;;;;;;;2.22;71.39;98876.28;4133688;28;20232;-54
2022/04/11 01:43:40;;;;;;;2.05;1.95;;;;;;;2.21;71.88;98877.31;4100737;28;20238;-55
2022/04/11 01:45:42;;;;;;;2.08;1.98;;;;;;;2.22;71.60;98870.06;4134260;28;20744;-56
2022/04/11 01:47:43;;;;;;;2.20;2.10;;;;;;;2.17;71.61;98873.34;4135803;28;20217;-55
2022/04/11 01:49:46;;;;;;;2.22;2.13;;;;;;;2.21;71.71;98863.00;4116227;28;20214;-55
2022/04/11 01:51:47;;;;;;;3.70;3.50;;;;;;;2.20;72.06;98861.34;4131385;28;20248;-56
2022/04/11 01:53:49;;;;;;;2.85;2.65;;;;;;;2.17;71.70;98856.31;4118327;28;20261;-54
2022/04/11 01:55:53;;;;;;;2.20;2.10;;;;;;;2.18;72.36;98853.44;4135187;28;20252;-55
2022/04/11 01:57:55;;;;;;;2.78;2.58;;;;;;;2.16;71.92;98850.09;4133115;28;20205;-55
2022/04/11 01:59:57;;;;;;;2.15;2.05;;;;;;;2.18;71.51;98858.81;4134682;28;20205;-54
2022/04/11 02:01:59;;;;;;;3.22;2.92;;;;;;;2.20;71.80;98851.38;4133857;28;20733;-54
2022/04/11 02:04:01;;;;;;;2.45;2.25;;;;;;;2.22;71.58;98864.69;4135359;28;20240;-54
2022/04/11 02:06:03;;;;;;;2.38;2.10;;;;;;;2.21;72.04;98868.41;4134001;28;20288;-55
2022/04/11 02:08:07;;;;;;;2.72;2.55;;;;;;;2.20;72.23;98862.16;4119624;28;20757;-56
2022/04/11 02:10:09;;;;;;;2.33;2.22;;;;;;;2.24;72.14;98865.31;4117673;28;20213;-55
2022/04/11 02:12:11;;;;;;;2.42;2.30;;;;;;;2.21;72.19;98855.72;4119098;28;20215;-55
2022/04/11 02:14:12;;;;;;;2.33;2.20;;;;;;;2.23;71.90;98855.56;4137020;28;20809;-56
2022/04/11 02:16:17;;;;;;;2.25;2.15;;;;;;;2.18;71.87;98858.81;4101656;28;20245;-55
2022/04/11 02:18:19;;;;;;;2.70;2.50;;;;;;;2.20;72.07;98861.34;4132797;28;20649;-55
2022/04/11 02:20:24;;;;;;;6.18;2.42;;;;;;;2.18;72.53;98858.81;4119994;28;20935;-56
2022/04/11 02:22:30;;;;;;;2.05;1.95;;;;;;;2.15;72.25;98853.78;4122364;28;20671;-56
2022/04/11 02:24:31;;;;;;;2.60;1.90;;;;;;;2.12;72.20;98854.19;4134839;28;20225;-56
2022/04/11 02:26:33;;;;;;;2.30;2.20;;;;;;;2.15;72.67;98845.69;4132141;28;20879;-55
2022/04/11 02:28:35;;;;;;;3.25;2.95;;;;;;;2.12;72.64;98842.53;4099170;28;20791;-55
2022/04/11 02:30:37;;;;;;;3.08;2.88;;;;;;;2.09;72.89;98843.78;4132199;28;20233;-55
2022/04/11 02:32:40;;;;;;;2.00;1.90;;;;;;;2.09;72.77;98827.59;4129881;28;20205;-55
2022/04/11 02:34:41;;;;;;;2.00;1.90;;;;;;;2.15;73.05;98828.69;4134890;28;20606;-55
2022/04/11 02:36:43;;;;;;;7.60;2.17;;;;;;;2.11;72.59;98827.38;4151855;28;20322;-55
2022/04/11 02:38:45;;;;;;;1.67;1.63;;;;;;;2.15;72.92;98816.00;4121743;28;20218;-55
2022/04/11 02:40:49;;;;;;;2.67;2.58;;;;;;;2.14;73.28;98822.44;4149139;28;20266;-55
2022/04/11 02:42:51;;;;;;;2.70;2.40;;;;;;;2.10;73.21;98818.47;4134290;28;20229;-54
2022/04/11 02:44:53;;;;;;;2.13;2.03;;;;;;;2.10;72.79;98813.06;4147231;28;20227;-55
2022/04/11 02:46:55;;;;;;;2.55;2.22;;;;;;;2.06;73.10;98814.44;4149525;28;20240;-54
2022/04/11 02:48:57;;;;;;;2.22;2.13;;;;;;;2.05;73.17;98810.09;4150463;28;20251;-54
2022/04/11 02:50:58;;;;;;;2.40;2.30;;;;;;;2.07;72.60;98812.59;4135707;28;20261;-55
2022/04/11 02:53:00;;;;;;;1.98;1.85;;;;;;;2.07;73.02;98813.41;4150664;28;20208;-56
2022/04/11 02:55:03;;;;;;;2.50;2.00;;;;;;;2.10;72.88;98821.16;4150136;28;20202;-55
2022/04/11 02:57:05;;;;;;;1.98;1.88;;;;;;;2.09;72.34;98815.94;4135599;28;20212;-54
2022/04/11 02:59:07;;;;;;;1.95;1.77;;;;;;;2.12;72.58;98821.78;4149871;28;20209;-55
2022/04/11 03:01:09;;;;;;;1.83;1.75;;;;;;;2.13;72.82;98823.47;4128736;28;20263;-55
2022/04/11 03:03:10;;;;;;;2.03;1.95;;;;;;;2.12;72.82;98821.78;4131396;28;20244;-55
2022/04/11 03:05:12;;;;;;;2.05;1.95;;;;;;;2.14;73.08;98819.72;4149334;28;20205;-54
2022/04/11 03:07:14;;;;;;;2.92;2.72;;;;;;;2.13;72.73;98822.63;4148709;28;20216;-54
2022/04/11 03:09:16;;;;;;;1.90;1.80;;;;;;;2.09;72.52;98816.78;4147373;28;20229;-55
2022/04/11 03:11:17;;;;;;;2.22;2.13;;;;;;;2.09;72.46;98813.25;4150459;28;20274;-55
2022/04/11 03:13:21;;;;;;;2.22;2.13;;;;;;;2.06;72.60;98819.84;4134792;28;20233;-56
2022/04/11 03:15:23;;;;;;;2.55;1.98;;;;;;;2.01;73.08;98811.47;4149603;28;20266;-55
2022/04/11 03:17:24;;;;;;;2.13;2.03;;;;;;;1.96;72.80;98800.44;4133775;28;20229;-56
2022/04/11 03:19:26;;;;;;;2.08;1.98;;;;;;;1.90;73.40;98801.19;4150214;28;20232;-55
2022/04/11 03:21:27;;;;;;;1.85;1.75;;;;;;;1.90;73.44;98801.19;4148822;28;20676;-56
2022/04/11 03:23:29;;;;;;;2.53;2.33;;;;;;;1.87;73.08;98801.53;4134036;28;20233;-56
2022/04/11 03:25:31;;;;;;;1.67;1.58;;;;;;;1.84;73.15;98801.94;4136025;28;20986;-55
2022/04/11 03:27:33;;;;;;;3.78;3.35;;;;;;;1.86;72.94;98805.28;4151739;28;20205;-55
2022/04/11 03:29:35;;;;;;;2.45;2.35;;;;;;;1.86;72.99;98799.88;4134365;28;20209;-55
2022/04/11 03:31:36;;;;;;;1.98;1.88;;;;;;;1.86;72.72;98809.81;4150228;28;20208;-55
2022/04/11 03:33:38;;;;;;;5.40;2.22;;;;;;;1.86;73.04;98807.97;4131192;28;20248;-55
2022/04/11 03:35:40;;;;;;;3.60;2.38;;;;;;;1.85;72.72;98803.59;4133401;28;20212;-55
2022/04/11 03:37:42;;;;;;;3.25;3.05;;;;;;;1.83;72.32;98805.66;4151564;28;20243;-54
2022/04/11 03:39:43;;;;;;;4.30;2.55;;;;;;;1.82;72.73;98803.16;4135613;28;22361;-55
2022/04/11 03:41:45;;;;;;;2.55;2.35;;;;;;;1.79;73.01;98798.97;4153174;28;20219;-54
2022/04/11 03:43:47;;;;;;;1.92;1.83;;;;;;;1.79;72.89;98803.50;4151721;28;20324;-55
2022/04/11 03:45:49;;;;;;;2.40;2.30;;;;;;;1.72;73.02;98798.03;4154707;28;20303;-54
2022/04/11 03:47:50;;;;;;;1.65;1.55;;;;;;;1.69;73.15;98798.41;4151774;28;20216;-56
2022/04/11 03:49:52;;;;;;;2.85;2.05;;;;;;;1.66;72.64;98793.41;4153347;28;20220;-54
2022/04/11 03:51:54;;;;;;;2.90;2.70;;;;;;;1.66;73.07;98798.78;4135625;28;20234;-55
2022/04/11 03:53:55;;;;;;;3.38;2.22;;;;;;;1.59;73.19;98794.31;4136926;28;20608;-54
2022/04/11 03:55:57;;;;;;;2.40;2.30;;;;;;;1.54;72.93;98794.88;4136957;28;20209;-54
2022/04/11 03:57:59;;;;;;;2.95;2.75;;;;;;;1.51;73.25;98800.66;4138761;28;20213;-54
2022/04/11 04:00:01;;;;;;;1.63;1.52;;;;;;;1.49;73.01;98799.97;4136119;28;20702;-55
2022/04/11 04:02:02;;;;;;;2.42;2.30;;;;;;;1.49;72.98;98801.88;4151144;28;20570;-54
2022/04/11 04:04:04;;;;;;;2.78;2.58;;;;;;;1.46;73.01;98789.59;4136542;28;20245;-54
2022/04/11 04:06:06;;;;;;;2.67;2.47;;;;;;;1.42;73.18;98793.66;4152653;28;20209;-53
2022/04/11 04:08:09;;;;;;;2.42;2.22;;;;;;;1.36;73.06;98790.91;4154215;28;20235;-54
2022/04/11 04:10:11;;;;;;;1.80;1.70;;;;;;;1.34;73.00;98785.69;4136765;28;20202;-55
2022/04/11 04:12:12;;;;;;;2.30;2.10;;;;;;;1.31;73.16;98777.13;4136661;28;20251;-54
2022/04/11 04:14:14;;;;;;;2.42;2.28;;;;;;;1.26;73.58;98785.78;4137119;28;20764;-57
2022/04/11 04:16:16;;;;;;;2.83;2.63;;;;;;;1.22;73.02;98781.75;4151431;28;20215;-55
2022/04/11 04:18:18;;;;;;;2.47;2.38;;;;;;;1.20;73.27;98783.00;4152039;28;20209;-56
2022/04/11 04:20:19;;;;;;;1.73;1.65;;;;;;;1.19;73.70;98778.59;4136210;28;20210;-56
2022/04/11 04:22:21;;;;;;;2.63;2.53;;;;;;;1.18;73.30;98785.88;4152891;28;20212;-55
2022/04/11 04:24:24;;;;;;;2.20;2.10;;;;;;;1.18;73.29;98779.63;4135122;28;20229;-56
2022/04/11 04:26:29;;;;;;;2.17;2.05;;;;;;;1.17;73.34;98777.97;4135511;28;20205;-56
2022/04/11 04:28:34;;;;;;;2.58;2.38;;;;;;;1.17;73.48;98776.13;4150830;28;20212;-55
2022/04/11 04:30:38;;;;;;;2.47;2.38;;;;;;;1.17;73.50;98770.72;4150391;28;20208;-56
2022/04/11 04:32:43;;;;;;;1.85;1.75;;;;;;;1.14;73.03;98773.78;4132376;28;20640;-56
2022/04/11 04:34:44;;;;;;;1.73;1.63;;;;;;;1.12;72.94;98772.28;4137016;28;20221;-56
2022/04/11 04:36:47;;;;;;;3.00;2.80;;;;;;;1.10;73.15;98769.78;4134657;28;20206;-55
2022/04/11 04:38:48;;;;;;;2.50;2.30;;;;;;;1.09;73.32;98776.19;4151657;28;20240;-55
2022/04/11 04:40:50;;;;;;;3.27;2.40;;;;;;;1.07;72.97;98775.53;4150316;28;20201;-55
2022/04/11 04:42:52;;;;;;;2.28;2.17;;;;;;;1.08;72.91;98785.28;4133609;28;20229;-55
2022/04/11 04:44:54;;;;;;;2.00;1.90;;;;;;;1.10;73.16;98775.19;4152252;28;21121;-55
2022/04/11 04:46:56;;;;;;;3.25;3.05;;;;;;;1.09;73.03;98772.66;4149732;28;20315;-55
2022/04/11 04:48:58;;;;;;;3.03;2.72;;;;;;;1.09;73.26;98769.97;4133655;28;20218;-56
2022/04/11 04:51:00;;;;;;;2.67;2.47;;;;;;;1.04;73.15;98770.53;4149462;28;20508;-55
2022/04/11 04:53:02;;;;;;;2.30;2.10;;;;;;;1.01;72.86;98770.88;4136340;28;20236;-56
2022/04/11 04:55:04;;;;;;;2.30;2.20;;;;;;;0.96;73.44;98767.06;4135588;28;20234;-55
2022/04/11 04:57:06;;;;;;;3.05;2.85;;;;;;;0.96;73.14;98772.47;4135661;28;20206;-56
2022/04/11 04:59:08;;;;;;;2.67;2.53;;;;;;;0.95;73.30;98765.41;4135526;28;20707;-55
2022/04/11 05:01:10;;;;;;;2.70;2.58;;;;;;;0.96;73.65;98767.91;4136415;28;20869;-54
2022/04/11 05:03:11;;;;;;;3.35;3.05;;;;;;;0.97;73.58;98763.34;4152667;28;20237;-54
2022/04/11 05:05:14;;;;;;;2.20;2.00;;;;;;;0.97;73.40;98766.91;4155022;28;20252;-55
2022/04/11 05:07:16;;;;;;;2.67;2.47;;;;;;;0.96;73.38;98773.31;4137037;28;20356;-55
2022/04/11 05:09:17;;;;;;;2.47;2.38;;;;;;;0.97;73.23;98769.59;4135293;28;20213;-55
2022/04/11 05:11:20;;;;;;;3.00;2.80;;;;;;;0.97;73.12;98771.44;4136104;28;20264;-55
2022/04/11 05:13:22;;;;;;;3.38;3.17;;;;;;;0.96;73.25;98762.53;4149017;28;20236;-55
2022/04/11 05:15:24;;;;;;;2.67;2.50;;;;;;;0.95;73.57;98770.78;4152717;28;20208;-55
2022/04/11 05:17:26;;;;;;;1.83;1.75;;;;;;;0.96;73.90;98767.91;4149683;28;21860;-56
2022/04/11 05:19:27;;;;;;;2.33;2.20;;;;;;;0.94;73.29;98769.94;4145230;28;20204;-56
2022/04/11 05:21:29;;;;;;;2.15;2.05;;;;;;;0.93;73.27;98779.03;4136133;28;20205;-55
2022/04/11 05:23:37;;;;;;;1.92;1.60;;;;;;;0.96;73.35;98773.31;4146516;28;20235;-55
2022/04/11 05:25:38;;;;;;;2.45;2.25;;;;;;;1.00;73.56;98779.97;4148696;28;20239;-55
2022/04/11 05:27:40;;;;;;;3.03;2.85;;;;;;;0.99;73.65;98783.69;4134307;28;20556;-54
2022/04/11 05:29:42;;;;;;;2.20;2.10;;;;;;;1.01;73.36;98773.56;4145963;28;21899;-54
2022/04/11 05:31:43;;;;;;;2.22;2.13;;;;;;;1.02;73.35;98783.31;4141086;28;20224;-56
2022/04/11 05:33:46;;;;;;;2.75;2.55;;;;;;;1.09;73.48;98776.19;4148919;28;20225;-55
2022/04/11 05:35:47;;;;;;;3.28;3.08;;;;;;;1.14;73.58;98781.84;4150377;28;20220;-55
2022/04/11 05:37:49;;;;;;;2.80;2.60;;;;;;;1.24;73.63;98784.28;4148562;28;20216;-56
2022/04/11 05:39:51;;;;;;;2.45;1.98;;;;;;;1.43;74.27;98778.34;4147344;28;20218;-56
2022/04/11 05:41:53;;;;;;;1.95;1.85;;;;;;;1.58;74.02;98785.41;4146373;28;20205;-55
2022/04/11 05:44:01;;;;;;;2.85;2.67;;;;;;;1.86;75.16;98785.53;4133205;28;20260;-55
2022/04/11 05:46:09;;;;;;;2.60;2.50;;;;;;;2.07;74.66;98781.03;4118059;28;20214;-55
2022/04/11 05:48:14;;;;;;;2.88;2.67;;;;;;;2.32;75.20;98787.75;4147685;28;20221;-56
2022/04/11 05:50:16;;;;;;;4.13;3.65;;;;;;;2.50;74.61;98787.31;4151984;28;20204;-56
2022/04/11 05:52:19;;;;;;;2.88;2.78;;;;;;;2.79;75.19;98790.72;4132917;28;20213;-56
2022/04/11 05:54:20;;;;;;;3.28;3.08;;;;;;;3.12;74.77;98783.72;4148465;28;20240;-55
2022/04/11 05:56:22;;;;;;;3.40;3.20;;;;;;;3.39;73.98;98780.16;4127748;28;20311;-55
2022/04/11 05:58:32;;;;;;;2.97;2.67;;;;;;;3.61;73.67;98781.75;4149275;28;21025;-56
2022/04/11 06:00:57;;;;;;;4.40;3.92;;;;;;;3.86;72.66;98782.91;4148456;28;20216;-55
2022/04/11 06:03:06;;;;;;;4.00;2.45;;;;;;;3.95;72.86;98784.41;4150341;28;20212;-55
2022/04/11 06:05:09;;;;;;;3.08;2.72;;;;;;;4.19;71.89;98783.06;4139223;28;20622;-56
2022/04/11 06:07:12;;;;;;;2.13;1.95;;;;;;;4.31;71.32;98778.72;4137735;28;20241;-56
2022/04/11 06:09:14;;;;;;;3.85;3.47;;;;;;;4.77;70.37;98782.34;4152940;28;20216;-55
2022/04/11 06:11:30;;;;;;;2.13;2.03;;;;;;;4.72;68.63;98785.69;4135996;28;20309;-55
2022/04/11 06:13:32;;;;;;;2.53;2.40;;;;;;;5.33;68.26;98789.88;4119408;28;20307;-56
2022/04/11 06:15:34;;;;;;;2.05;1.90;;;;;;;5.11;67.81;98791.13;4136520;28;20210;-55
2022/04/11 06:17:47;;;;;;;1.85;1.75;;;;;;;5.12;68.25;98792.81;4133678;28;20206;-55
2022/04/11 06:19:56;;;;;;;2.10;2.00;;;;;;;4.63;67.31;98786.94;4137655;28;20290;-56
2022/04/11 06:21:58;;;;;;;2.13;2.03;;;;;;;5.02;67.70;98796.97;4137240;28;20197;-55
2022/04/11 06:24:00;;;;;;;2.65;2.45;;;;;;;5.36;66.88;98795.69;4135256;28;20322;-56
2022/04/11 06:26:03;;;;;;;3.42;3.13;;;;;;;5.44;66.19;98792.75;4135285;28;20228;-56
2022/04/11 06:28:14;;;;;;;2.05;1.92;;;;;;;5.56;66.35;98784.84;4137840;28;20595;-56
2022/04/11 06:30:18;;;;;;;2.92;2.63;;;;;;;5.76;65.58;98785.63;4137766;28;20669;-54
2022/04/11 06:32:27;;;;;;;2.00;1.90;;;;;;;6.17;65.43;98777.97;4136648;28;20285;-55
2022/04/11 06:34:29;;;;;;;1.48;1.38;;;;;;;6.29;64.47;98777.06;4153011;28;20228;-56
2022/04/11 06:36:31;;;;;;;2.03;1.92;;;;;;;6.36;63.07;98768.91;4119488;28;20214;-56
2022/04/11 06:38:40;;;;;;;2.03;1.90;;;;;;;6.02;64.34;98774.72;4135878;28;20213;-55
2022/04/11 06:40:42;;;;;;;2.55;2.45;;;;;;;6.42;64.35;98770.75;4137928;28;20738;-54
2022/04/11 06:42:45;;;;;;;2.13;2.03;;;;;;;7.15;63.40;98770.84;4133228;28;20220;-54
2022/04/11 06:44:47;;;;;;;1.77;1.67;;;;;;;7.90;61.34;98777.88;4138993;28;20315;-55
2022/04/11 06:46:49;;;;;;;2.65;2.42;;;;;;;7.43;60.27;98778.56;4139450;28;20675;-55
2022/04/11 06:48:51;;;;;;;2.05;1.85;;;;;;;7.62;60.84;98774.81;4136770;28;20245;-54
2022/04/11 06:50:56;;;;;;;2.25;2.03;;;;;;;7.32;60.49;98779.28;4152297;28;20243;-58
2022/04/11 06:52:57;;;;;;;1.70;1.60;;;;;;;7.44;59.42;98777.50;4151904;28;20205;-55
2022/04/11 06:54:59;;;;;;;1.17;1.17;;;;;;;7.47;60.33;98774.31;4139840;28;20210;-56
2022/04/11 06:57:01;;;;;;;2.20;2.10;;;;;;;7.27;60.35;98771.81;4137252;28;20211;-54
2022/04/11 06:59:06;;;;;;;5.13;2.35;;;;;;;7.38;60.37;98768.38;4134645;28;20276;-55
2022/04/11 07:01:08;;;;;;;1.60;1.50;;;;;;;7.36;59.33;98769.63;4151655;28;20655;-55
2022/04/11 07:03:10;;;;;;;2.30;2.10;;;;;;;7.19;58.92;98766.66;4119956;28;20782;-54
2022/04/11 07:05:12;;;;;;;1.30;1.30;;;;;;;6.83;58.73;98765.69;4152070;28;20316;-55
2022/04/11 07:07:14;;;;;;;1.95;1.85;;;;;;;6.97;59.09;98768.06;4135964;28;20300;-54
2022/04/11 07:09:16;;;;;;;1.50;1.40;;;;;;;7.30;59.22;98771.34;4151632;28;21105;-54
2022/04/11 07:11:18;;;;;;;1.77;1.67;;;;;;;7.15;58.25;98778.19;4157484;28;20291;-54
2022/04/11 07:13:20;;;;;;;2.00;1.80;;;;;;;7.15;59.03;98772.75;4158031;28;20267;-54
2022/04/11 07:15:22;;;;;;;4.13;2.00;;;;;;;7.51;58.37;98772.84;4157346;28;20633;-55
2022/04/11 07:17:24;;;;;;;1.85;1.75;;;;;;;7.51;57.25;98772.84;4123370;28;20205;-55
2022/04/11 07:19:26;;;;;;;2.28;2.17;;;;;;;7.67;57.00;98772.25;4138908;28;20221;-55
2022/04/11 07:21:28;;;;;;;1.83;1.50;;;;;;;7.80;57.20;98772.09;4127675;28;20654;-55
2022/04/11 07:23:30;;;;;;;1.60;1.50;;;;;;;7.88;56.56;98775.38;4135818;28;20236;-55
2022/04/11 07:25:32;;;;;;;3.03;2.25;;;;;;;7.92;56.43;98770.28;4137404;28;20254;-54
2022/04/11 07:27:36;;;;;;;1.73;1.63;;;;;;;7.94;56.80;98779.06;4159898;28;20257;-55
2022/04/11 07:29:38;;;;;;;1.58;1.48;;;;;;;7.94;56.50;98784.50;4156410;28;20667;-55
2022/04/11 07:31:42;;;;;;;1.45;1.35;;;;;;;8.13;55.66;98772.56;4155274;28;20783;-55
2022/04/11 07:33:49;;;;;;;1.90;1.80;;;;;;;7.81;55.89;98773.78;4139036;28;20335;-55
2022/04/11 07:35:51;;;;;;;2.55;1.92;;;;;;;8.09;55.15;98782.25;4122943;28;20271;-55
2022/04/11 07:37:52;;;;;;;1.83;1.60;;;;;;;8.11;54.86;98777.41;4157626;28;20216;-54
2022/04/11 07:39:54;;;;;;;1.83;1.73;;;;;;;8.39;54.70;98777.72;4156528;28;20201;-55
2022/04/11 07:41:56;;;;;;;1.90;1.58;;;;;;;8.51;54.88;98778.59;4141925;28;20795;-54
2022/04/11 07:43:58;;;;;;;1.90;1.80;;;;;;;8.83;54.19;98775.41;4142902;28;20229;-56
2022/04/11 07:46:01;;;;;;;1.70;1.60;;;;;;;8.46;53.25;98778.44;4143857;28;20217;-55
2022/04/11 07:48:04;;;;;;;1.33;1.23;;;;;;;8.55;53.56;98768.91;4143854;28;20264;-56
2022/04/11 07:50:07;;;;;;;1.67;1.50;;;;;;;8.47;54.10;98769.19;4143334;28;20205;-55
2022/04/11 07:52:08;;;;;;;1.00;1.00;;;;;;;8.63;53.53;98768.56;4157981;28;20258;-54
2022/04/11 07:54:10;;;;;;;1.77;1.67;;;;;;;8.74;52.72;98760.44;4141177;28;20335;-56
2022/04/11 07:56:12;;;;;;;1.17;1.17;;;;;;;8.63;53.11;98768.56;4141099;28;20209;-55
2022/04/11 07:58:15;;;;;;;1.95;1.85;;;;;;;8.97;53.85;98767.84;4142452;28;20212;-55
2022/04/11 08:00:17;;;;;;;1.50;1.40;;;;;;;9.35;53.24;98768.28;4157372;28;20316;-55
2022/04/11 08:02:26;;;;;;;1.98;1.88;;;;;;;9.72;52.12;98766.97;4122749;28;20241;-55
2022/04/11 08:04:28;;;;;;;1.52;1.52;;;;;;;9.71;51.49;98773.50;4141238;28;20310;-55
2022/04/11 08:06:30;;;;;;;1.80;1.70;;;;;;;9.69;51.14;98773.72;4143470;28;20239;-55
2022/04/11 08:08:32;;;;;;;2.47;1.50;;;;;;;9.59;50.99;98769.94;4140932;28;20270;-55
2022/04/11 08:10:34;;;;;;;1.30;1.20;;;;;;;10.46;51.31;98766.97;4143512;28;20240;-55
2022/04/11 08:12:38;;;;;;;1.30;1.23;;;;;;;10.69;51.16;98761.41;4141266;28;20840;-55
2022/04/11 08:14:40;;;;;;;1.90;1.80;;;;;;;10.37;49.94;98758.34;4141692;28;20221;-55
2022/04/11 08:16:42;;;;;;;1.52;1.42;;;;;;;10.29;50.00;98758.69;4142281;28;20204;-54
2022/04/11 08:18:45;;;;;;;1.38;1.27;;;;;;;10.36;49.47;98755.84;4142158;28;20221;-54
2022/04/11 08:20:46;;;;;;;1.13;1.13;;;;;;;10.40;49.06;98751.53;4151434;28;21165;-55
2022/04/11 08:22:48;;;;;;;1.30;1.23;;;;;;;10.20;49.66;98765.63;4148672;28;20678;-55
2022/04/11 08:24:50;;;;;;;1.25;1.25;;;;;;;10.20;49.40;98764.78;4153955;28;20232;-54
2022/04/11 08:26:52;;;;;;;1.30;1.20;;;;;;;10.06;50.28;98757.94;4144714;28;20205;-53
2022/04/11 08:28:53;;;;;;;0.90;0.90;;;;;;;10.19;49.28;98749.44;4152235;28;20205;-55
2022/04/11 08:30:55;;;;;;;1.33;1.23;;;;;;;10.46;50.06;98745.94;4151752;28;20212;-55
2022/04/11 08:32:58;;;;;;;1.92;1.83;;;;;;;10.77;49.68;98736.38;4153365;28;20255;-55
2022/04/11 08:35:00;;;;;;;1.40;1.30;;;;;;;11.03;49.21;98740.16;4154966;28;20261;-55
2022/04/11 08:37:02;;;;;;;1.38;1.27;;;;;;;11.07;48.05;98741.34;4135526;28;20735;-54
2022/04/11 08:39:03;;;;;;;0.93;0.93;;;;;;;11.12;47.40;98741.41;4139279;28;20239;-55
2022/04/11 08:41:08;;;;;;;1.10;1.00;;;;;;;10.92;48.23;98730.09;4154308;28;20210;-54
2022/04/11 08:43:11;;;;;;;1.50;1.40;;;;;;;11.07;47.93;98727.66;4152838;28;20231;-54
2022/04/11 08:45:19;;;;;;;1.20;0.88;;;;;;;11.09;48.06;98730.13;4151542;28;20313;-54
2022/04/11 08:47:20;;;;;;;1.15;1.13;;;;;;;11.35;47.10;98730.31;4153952;28;20205;-54
2022/04/11 08:49:22;;;;;;;1.30;1.20;;;;;;;11.63;47.54;98726.66;4136369;28;20209;-54
2022/04/11 08:51:24;;;;;;;1.00;1.00;;;;;;;11.97;46.95;98729.06;4136972;28;20216;-54
2022/04/11 08:53:26;;;;;;;1.20;1.10;;;;;;;12.04;45.31;98732.44;4136411;28;20327;-53
2022/04/11 08:55:27;;;;;;;1.30;1.20;;;;;;;11.61;45.44;98718.69;4155134;28;20263;-53
2022/04/11 08:57:36;;;;;;;1.10;1.05;;;;;;;11.82;46.49;98714.31;4156095;28;20266;-54
2022/04/11 08:59:37;;;;;;;1.10;1.10;;;;;;;11.83;45.49;98711.31;4134469;28;20214;-54
2022/04/11 09:01:40;;;;;;;23.38;1.52;;;;;;;12.05;45.86;98714.91;4148761;28;20924;-53
2022/04/11 09:03:42;;;;;;;0.90;0.90;;;;;;;12.12;44.92;98710.03;4136417;28;20290;-53
2022/04/11 09:05:44;;;;;;;0.80;0.80;;;;;;;12.14;44.68;98696.94;4153540;28;20251;-54
2022/04/11 09:07:56;;;;;;;1.48;0.98;;;;;;;11.65;44.52;98708.84;4154684;28;20259;-54
2022/04/11 09:10:01;;;;;;;2.53;1.00;;;;;;;11.92;45.05;98708.97;4150539;28;20694;-54
2022/04/11 09:12:03;;;;;;;0.93;0.93;;;;;;;12.46;45.04;98708.84;4146657;28;20577;-55
2022/04/11 09:14:08;;;;;;;0.90;0.80;;;;;;;11.87;42.87;98703.41;4136437;28;20226;-54
2022/04/11 09:16:10;;;;;;;0.98;0.80;;;;;;;12.13;42.84;98698.00;4154387;28;20208;-55
2022/04/11 09:18:11;;;;;;;0.85;0.85;;;;;;;11.91;42.52;98705.38;4136066;28;22520;-53
2022/04/11 09:20:15;;;;;;;0.90;0.90;;;;;;;12.08;43.01;98700.69;4152555;28;20706;-54
2022/04/11 09:22:44;;;;;;;0.70;0.70;;;;;;;12.92;43.09;98710.97;4154467;28;20212;-54
2022/04/11 09:24:49;;;;;;;1.23;1.23;;;;;;;13.11;42.92;98720.50;4117141;28;20238;-53
2022/04/11 09:26:57;;;;;;;0.80;0.80;;;;;;;13.63;41.73;98713.22;4136404;28;20201;-54
2022/04/11 09:29:03;;;;;;;0.88;0.88;;;;;;;12.84;40.43;98716.09;4149809;28;20200;-53
2022/04/11 09:31:08;;;;;;;0.70;0.70;;;;;;;12.41;41.23;98703.28;4153995;28;20229;-54
2022/04/11 09:33:10;;;;;;;1.27;0.80;;;;;;;12.14;41.39;98707.06;4151155;28;20304;-54
2022/04/11 09:35:19;;;;;;;0.82;0.82;;;;;;;11.98;41.98;98703.28;4135753;28;20648;-54
2022/04/11 09:37:21;;;;;;;0.80;0.80;;;;;;;12.13;42.36;98700.75;4133640;28;20239;-55
2022/04/11 09:39:25;;;;;;;0.88;0.88;;;;;;;12.45;41.62;98698.91;4117238;28;20211;-55
2022/04/11 09:41:34;;;;;;;1.10;1.10;;;;;;;12.47;40.94;98691.28;4151964;28;20668;-54
2022/04/11 09:43:36;;;;;;;0.70;0.70;;;;;;;12.49;41.70;98694.59;4150727;28;20236;-55
2022/04/11 09:45:44;;;;;;;0.80;0.80;;;;;;;12.48;40.10;98692.94;4148378;28;20212;-52